Time;durP1;ratioP1;P1;durP2;ratioP2;P2;SDS_P1;SDS_P2;PMS_P1;PMS_P2;Temp;Humidity;BMP_temperature;BMP_pressure;BME280_temperature;BME280_humidity;BME280_pressure;Samples;Min_cycle;Max_cycle;Signal;HPM_P1;HPM_P2
2023/05/06 00:00:52;;;;;;;22.45;11.98;;;;;;;-146.27;100.00;83075.28;5027452;28;20092;-68
2023/05/06 00:03:18;;;;;;;24.52;12.85;;;;;;;-146.27;100.00;83075.28;5029432;28;20021;-69
2023/05/06 00:05:44;;;;;;;18.67;11.77;;;;;;;-146.27;100.00;83087.31;5029841;28;20032;-69
2023/05/06 00:08:10;;;;;;;17.85;12.32;;;;;;;-146.27;100.00;83075.28;5028748;28;20591;-69
2023/05/06 00:10:35;;;;;;;17.05;11.38;;;;;;;-146.27;100.00;83075.28;5029682;28;20036;-70
2023/05/06 00:13:01;;;;;;;20.48;12.43;;;;;;;-146.27;100.00;83075.28;5027576;28;20132;-70
2023/05/06 00:15:26;;;;;;;19.13;11.73;;;;;;;-146.27;100.00;83073.25;5030272;28;20055;-69
2023/05/06 00:17:51;;;;;;;20.25;12.27;;;;;;;-146.27;100.00;83051.16;5030355;28;20026;-68
2023/05/06 00:20:17;;;;;;;20.08;12.63;;;;;;;-146.27;100.00;83083.31;5029965;28;20025;-68
2023/05/06 00:22:42;;;;;;;20.38;12.65;;;;;;;-146.27;100.00;83067.25;5030541;28;20461;-67
2023/05/06 00:25:08;;;;;;;20.70;12.63;;;;;;;-146.27;100.00;83059.19;5030914;28;20048;-71
2023/05/06 00:27:33;;;;;;;22.40;13.80;;;;;;;-146.27;100.00;83067.25;5030663;28;20026;-70
2023/05/06 00:29:58;;;;;;;19.58;12.70;;;;;;;-146.27;100.00;83043.13;5030634;28;20037;-69
2023/05/06 00:32:24;;;;;;;23.65;13.85;;;;;;;-146.27;100.00;83051.16;5031432;28;20029;-69
2023/05/06 00:34:49;;;;;;;20.00;12.77;;;;;;;-146.27;100.00;83033.09;5030391;28;20037;-70
2023/05/06 00:37:15;;;;;;;22.05;13.75;;;;;;;-146.27;100.00;83045.13;5030768;28;20108;-69
2023/05/06 00:39:40;;;;;;;17.10;11.65;;;;;;;-146.27;100.00;83025.03;5028459;28;20520;-71
2023/05/06 00:42:05;;;;;;;22.42;13.35;;;;;;;-146.27;100.00;82998.94;5031241;28;20026;-69
2023/05/06 00:44:31;;;;;;;20.67;13.95;;;;;;;-146.27;100.00;83035.09;5030794;28;20017;-69
2023/05/06 00:46:58;;;;;;;20.63;13.18;;;;;;;-146.27;100.00;83004.94;5029989;28;20083;-70
2023/05/06 00:49:23;;;;;;;19.23;13.15;;;;;;;-146.27;100.00;83033.09;5030948;28;20068;-69
2023/05/06 00:51:50;;;;;;;23.98;13.32;;;;;;;-146.27;100.00;83021.03;5029790;28;20029;-72
2023/05/06 00:54:16;;;;;;;19.20;12.75;;;;;;;-146.27;100.00;82992.91;5029807;28;20109;-69
2023/05/06 00:56:41;;;;;;;21.17;13.00;;;;;;;-146.27;100.00;83021.03;5030191;28;20116;-69
2023/05/06 00:59:07;;;;;;;20.98;13.50;;;;;;;-146.27;100.00;83013.00;5029247;28;20029;-69
2023/05/06 01:01:32;;;;;;;18.95;12.48;;;;;;;-146.27;100.00;83029.06;5029758;28;20025;-70
2023/05/06 01:03:59;;;;;;;19.15;12.95;;;;;;;-146.27;100.00;83025.03;5030316;28;20060;-69
2023/05/06 01:06:48;;;;;;;20.15;13.32;;;;;;;-146.27;100.00;83006.97;5029317;28;20564;-68
2023/05/06 01:09:23;;;;;;;20.35;12.60;;;;;;;-146.27;100.00;83037.09;5029086;28;20033;-70
2023/05/06 01:11:51;;;;;;;18.33;12.60;;;;;;;-146.27;100.00;83033.09;5029018;28;20646;-69
2023/05/06 01:14:33;;;;;;;26.58;12.65;;;;;;;-146.27;100.00;83031.06;5030022;28;20048;-69
2023/05/06 01:17:03;;;;;;;19.85;12.55;;;;;;;-146.27;100.00;83051.16;5029610;28;20440;-69
2023/05/06 01:19:52;;;;;;;23.67;12.10;;;;;;;-146.27;100.00;83063.22;5029246;28;20059;-67
2023/05/06 01:22:18;;;;;;;19.73;11.48;;;;;;;-146.27;100.00;83045.13;5023577;28;20524;-70
2023/05/06 01:24:44;;;;;;;16.95;10.65;;;;;;;-146.27;100.00;83111.44;5029566;28;20059;-70
2023/05/06 01:27:11;;;;;;;20.80;11.90;;;;;;;-146.27;100.00;83091.34;5030870;28;20036;-69
2023/05/06 01:29:40;;;;;;;18.60;11.48;;;;;;;-146.27;100.00;83077.28;5029195;28;20079;-69
2023/05/06 01:32:44;;;;;;;18.23;11.18;;;;;;;-146.27;100.00;83075.28;5030255;28;20029;-69
2023/05/06 01:35:19;;;;;;;18.27;12.13;;;;;;;-146.27;100.00;83139.56;5028481;28;20073;-71
2023/05/06 01:37:51;;;;;;;19.77;12.68;;;;;;;-146.27;100.00;83131.53;5029830;28;20021;-70
2023/05/06 01:40:17;;;;;;;19.17;12.30;;;;;;;-146.27;100.00;83099.38;5028027;28;20037;-69
2023/05/06 01:42:47;;;;;;;20.25;11.65;;;;;;;-146.27;100.00;83083.31;5030364;28;20022;-69
2023/05/06 01:45:15;;;;;;;18.25;11.55;;;;;;;-146.27;100.00;83113.44;5028070;28;22288;-69
2023/05/06 01:47:45;;;;;;;19.40;11.95;;;;;;;-146.27;100.00;83159.66;5027383;28;20030;-69
2023/05/06 01:50:11;;;;;;;18.88;11.45;;;;;;;-146.27;100.00;83135.53;5025488;28;20033;-70
2023/05/06 01:52:36;;;;;;;23.63;12.23;;;;;;;-146.27;100.00;83143.59;5028757;28;20074;-69
2023/05/06 01:55:01;;;;;;;19.90;12.82;;;;;;;-146.27;100.00;83111.44;5028311;28;20057;-69
2023/05/06 01:57:27;;;;;;;15.90;11.68;;;;;;;-146.27;100.00;83135.53;5028464;28;20150;-70
2023/05/06 01:59:52;;;;;;;17.50;12.07;;;;;;;-146.27;100.00;83161.66;5026246;28;20037;-69
2023/05/06 02:02:18;;;;;;;22.33;12.48;;;;;;;-146.27;100.00;83143.59;5027265;28;20044;-70
2023/05/06 02:04:43;;;;;;;18.27;11.82;;;;;;;-146.27;100.00;83099.38;5029506;28;20511;-72
2023/05/06 02:07:08;;;;;;;18.92;12.38;;;;;;;-146.27;100.00;83107.41;5028507;28;20107;-73
2023/05/06 02:09:34;;;;;;;18.00;12.10;;;;;;;-146.27;100.00;83127.50;5027599;28;20029;-72
2023/05/06 02:12:00;;;;;;;18.63;11.43;;;;;;;-146.27;100.00;83169.69;5028034;28;20036;-72
2023/05/06 02:14:25;;;;;;;21.30;11.73;;;;;;;-146.27;100.00;83203.88;5028777;28;20038;-73
2023/05/06 02:16:51;;;;;;;18.65;11.32;;;;;;;-146.27;100.00;83183.78;5028841;28;20031;-73
2023/05/06 02:19:16;;;;;;;16.73;11.57;;;;;;;-146.27;100.00;83185.78;5028474;28;20496;-73
2023/05/06 02:21:41;;;;;;;18.33;10.93;;;;;;;-146.27;100.00;83227.97;5028896;28;20029;-71
2023/05/06 02:24:07;;;;;;;17.98;12.23;;;;;;;-146.27;100.00;83213.91;5028341;28;20549;-74
2023/05/06 02:26:32;;;;;;;18.20;11.02;;;;;;;-146.27;100.00;83262.13;5029240;28;20028;-73
2023/05/06 02:28:57;;;;;;;17.00;11.48;;;;;;;-146.27;100.00;83252.09;5027967;28;20033;-73
2023/05/06 02:31:23;;;;;;;18.10;12.25;;;;;;;-146.27;100.00;83264.13;5027954;28;20041;-73
2023/05/06 02:33:49;;;;;;;18.85;11.50;;;;;;;-146.27;100.00;83250.06;5028489;28;20071;-73
2023/05/06 02:36:14;;;;;;;19.02;12.75;;;;;;;-146.27;100.00;83300.31;5029126;28;20476;-74
2023/05/06 02:38:40;;;;;;;18.00;12.13;;;;;;;-146.27;100.00;83280.22;5028606;28;20035;-73
2023/05/06 02:41:05;;;;;;;15.98;11.52;;;;;;;-146.27;100.00;83284.22;5027225;28;20049;-73
2023/05/06 02:43:30;;;;;;;14.18;10.05;;;;;;;-146.27;100.00;83310.34;5028619;28;20030;-73
2023/05/06 02:45:55;;;;;;;15.20;11.02;;;;;;;-146.27;100.00;83316.38;5028234;28;20116;-73
2023/05/06 02:48:21;;;;;;;17.48;11.68;;;;;;;-146.27;100.00;83324.41;5027292;28;20057;-73
2023/05/06 02:50:46;;;;;;;18.92;12.05;;;;;;;-146.27;100.00;83296.28;5028847;28;20025;-72
2023/05/06 02:53:12;;;;;;;16.20;11.85;;;;;;;-146.27;100.00;83314.38;5033038;28;20025;-72
2023/05/06 02:55:37;;;;;;;16.35;10.82;;;;;;;-146.27;100.00;83332.44;5030455;28;20034;-74
2023/05/06 02:58:03;;;;;;;18.15;11.23;;;;;;;-146.27;100.00;83364.59;5032012;28;20041;-72
2023/05/06 03:00:28;;;;;;;18.38;11.73;;;;;;;-146.27;100.00;83302.31;5029955;28;20117;-72
2023/05/06 03:02:53;;;;;;;16.15;11.38;;;;;;;-146.27;100.00;83370.63;5031145;28;20036;-74
2023/05/06 03:05:20;;;;;;;17.63;11.57;;;;;;;-146.27;100.00;83348.53;5031654;28;20099;-72
2023/05/06 03:07:45;;;;;;;16.67;11.02;;;;;;;-146.27;100.00;83364.59;5031918;28;20104;-73
2023/05/06 03:10:11;;;;;;;15.25;10.85;;;;;;;-146.27;100.00;83336.47;5030647;28;20460;-73
2023/05/06 03:12:36;;;;;;;20.13;11.45;;;;;;;-146.27;100.00;83314.38;5030883;28;20041;-73
2023/05/06 03:15:01;;;;;;;18.13;12.30;;;;;;;-146.27;100.00;83304.31;5032124;28;20116;-73
2023/05/06 03:17:27;;;;;;;16.88;11.90;;;;;;;-146.27;100.00;83362.59;5031134;28;20029;-73
2023/05/06 03:19:52;;;;;;;19.73;12.52;;;;;;;-146.27;100.00;83306.34;5030540;28;20484;-73
2023/05/06 03:22:17;;;;;;;19.15;11.85;;;;;;;-146.27;100.00;83300.31;5032220;28;20033;-73
2023/05/06 03:24:43;;;;;;;17.83;13.50;;;;;;;-146.27;100.00;83292.28;5031046;28;20021;-72
2023/05/06 03:27:08;;;;;;;19.25;12.40;;;;;;;-146.27;100.00;83300.31;5032317;28;20092;-73
2023/05/06 03:29:33;;;;;;;18.80;12.48;;;;;;;-146.27;100.00;83296.28;5030635;28;20530;-74
2023/05/06 03:32:02;;;;;;;16.75;11.38;;;;;;;-146.27;100.00;83354.56;5031408;28;20033;-72
2023/05/06 03:34:28;;;;;;;18.92;12.98;;;;;;;-146.27;100.00;83344.50;5026425;28;20025;-75
2023/05/06 03:36:53;;;;;;;16.55;12.68;;;;;;;-146.27;100.00;83348.53;5030203;28;20026;-73
2023/05/06 03:39:19;;;;;;;18.50;12.75;;;;;;;-146.27;100.00;83334.47;5031522;28;20033;-74
2023/05/06 03:41:44;;;;;;;17.65;12.43;;;;;;;-146.27;100.00;83348.53;5031183;28;20025;-74
2023/05/06 03:44:10;;;;;;;22.58;13.50;;;;;;;-146.27;100.00;83344.50;5028786;28;20025;-74
2023/05/06 03:46:35;;;;;;;18.95;13.43;;;;;;;-146.27;100.00;83354.56;5030893;28;20028;-74
2023/05/06 03:49:01;;;;;;;17.88;12.82;;;;;;;-146.27;100.00;83354.56;5030817;28;20096;-73
2023/05/06 03:51:27;;;;;;;16.17;12.20;;;;;;;-146.27;100.00;83362.59;5030722;28;20095;-74
2023/05/06 03:53:53;;;;;;;19.30;13.00;;;;;;;-146.27;100.00;83388.72;5030854;28;20061;-73
2023/05/06 03:56:20;;;;;;;21.60;13.05;;;;;;;-146.27;100.00;83366.59;5030062;28;20125;-73
2023/05/06 03:58:46;;;;;;;21.58;13.20;;;;;;;-146.27;100.00;83364.59;5031805;28;20468;-72
2023/05/06 04:01:11;;;;;;;20.42;13.48;;;;;;;-146.27;100.00;83376.66;5029092;28;20031;-74
2023/05/06 04:03:36;;;;;;;21.67;13.93;;;;;;;-146.27;100.00;83374.66;5021667;28;20523;-74
2023/05/06 04:06:02;;;;;;;23.80;15.25;;;;;;;-146.27;100.00;83404.78;5025727;28;20342;-74
2023/05/06 04:08:27;;;;;;;32.97;18.80;;;;;;;-146.27;100.00;83374.66;5028665;28;20025;-73
2023/05/06 04:10:53;;;;;;;30.42;17.98;;;;;;;-146.27;100.00;83386.69;5030928;28;20033;-73
2023/05/06 04:13:19;;;;;;;31.30;18.63;;;;;;;-146.27;100.00;83320.41;5030857;28;20574;-75
2023/05/06 04:15:44;;;;;;;27.58;17.42;;;;;;;-146.27;100.00;83356.56;5029853;28;20029;-74
2023/05/06 04:18:09;;;;;;;24.52;16.52;;;;;;;-146.27;100.00;83426.88;5031083;28;20033;-73
2023/05/06 04:20:35;;;;;;;25.23;15.20;;;;;;;-146.27;100.00;83348.53;5031847;28;20029;-74
2023/05/06 04:23:00;;;;;;;20.38;14.20;;;;;;;-146.27;100.00;83388.72;5045427;28;20025;-72
2023/05/06 04:25:27;;;;;;;22.17;14.98;;;;;;;-146.27;100.00;83356.56;5029390;28;20029;-72
2023/05/06 04:27:52;;;;;;;23.13;15.25;;;;;;;-146.27;100.00;83324.41;5027128;28;20108;-73
2023/05/06 04:30:19;;;;;;;22.10;14.23;;;;;;;-146.27;100.00;83344.50;5029982;28;20113;-73
2023/05/06 04:32:45;;;;;;;20.83;14.68;;;;;;;-146.27;100.00;83336.47;5030715;28;20380;-72
2023/05/06 04:35:10;;;;;;;23.52;15.15;;;;;;;-146.27;100.00;83304.31;5029619;28;20108;-72
2023/05/06 04:37:36;;;;;;;21.98;14.70;;;;;;;-146.27;100.00;83312.34;5028639;28;20079;-73
2023/05/06 04:40:01;;;;;;;20.42;14.43;;;;;;;-146.27;100.00;83310.34;5028024;28;20037;-74
2023/05/06 04:42:27;;;;;;;22.35;14.57;;;;;;;-146.27;100.00;83336.47;5031336;28;20537;-74
2023/05/06 04:44:52;;;;;;;21.25;14.30;;;;;;;-146.27;100.00;83332.44;5029455;28;20021;-73
2023/05/06 04:47:18;;;;;;;20.98;14.52;;;;;;;-146.27;100.00;83300.31;5029401;28;20123;-73
2023/05/06 04:49:43;;;;;;;25.08;16.23;;;;;;;-146.27;100.00;83286.25;5028155;28;20107;-73
2023/05/06 04:52:08;;;;;;;26.45;15.88;;;;;;;-146.27;100.00;83296.28;5028978;28;20021;-74
2023/05/06 04:54:33;;;;;;;23.85;14.55;;;;;;;-146.27;100.00;83300.31;5029157;28;20021;-74
2023/05/06 04:56:59;;;;;;;21.42;14.63;;;;;;;-146.27;100.00;83276.19;5029181;28;20495;-73
2023/05/06 04:59:25;;;;;;;26.55;16.67;;;;;;;-146.27;100.00;83300.31;5027743;28;20022;-74
2023/05/06 05:01:50;;;;;;;21.13;14.15;;;;;;;-146.27;100.00;83272.19;5027397;28;20699;-74
2023/05/06 05:04:15;;;;;;;26.70;15.55;;;;;;;-146.27;100.00;83308.34;5027976;28;20116;-73
2023/05/06 05:06:41;;;;;;;24.38;15.52;;;;;;;-146.27;100.00;83302.31;5029759;28;20075;-73
2023/05/06 05:09:06;;;;;;;24.45;15.70;;;;;;;-146.27;100.00;83272.19;5029260;28;20504;-73
2023/05/06 05:11:31;;;;;;;26.70;16.25;;;;;;;-146.27;100.00;83292.28;5029233;28;20028;-73
2023/05/06 05:13:57;;;;;;;22.42;15.70;;;;;;;-146.27;100.00;83278.19;5023697;28;20042;-73
2023/05/06 05:16:22;;;;;;;25.25;16.63;;;;;;;-146.27;100.00;83286.25;5026672;28;20452;-73
2023/05/06 05:18:47;;;;;;;23.25;16.05;;;;;;;-146.27;100.00;83286.25;5027795;28;20021;-73
2023/05/06 05:21:13;;;;;;;23.95;15.93;;;;;;;-146.27;100.00;83264.13;5027266;28;20075;-73
2023/05/06 05:23:38;;;;;;;24.67;16.20;;;;;;;-146.27;100.00;83254.09;5029960;28;20099;-74
2023/05/06 05:26:04;;;;;;;26.30;15.75;;;;;;;-146.27;100.00;83262.13;5029731;28;20037;-73
2023/05/06 05:28:30;;;;;;;23.55;15.95;;;;;;;-146.27;100.00;83238.03;5030276;28;20044;-73
2023/05/06 05:31:01;;;;;;;25.13;16.88;;;;;;;-146.27;100.00;83215.91;5028838;28;20033;-73
2023/05/06 05:33:26;;;;;;;24.70;15.88;;;;;;;-146.27;100.00;83207.88;5027749;28;20057;-73
2023/05/06 05:35:52;;;;;;;27.52;16.95;;;;;;;-146.27;100.00;83225.97;5029919;28;20053;-72
2023/05/06 05:38:17;;;;;;;29.40;17.67;;;;;;;-146.27;100.00;83157.66;5028220;28;20112;-73
2023/05/06 05:40:42;;;;;;;27.55;17.45;;;;;;;-146.27;100.00;83201.84;5029775;28;20762;-73
2023/05/06 05:43:08;;;;;;;26.27;17.52;;;;;;;-146.27;100.00;83199.84;5029547;28;20440;-73
2023/05/06 05:45:33;;;;;;;35.30;18.75;;;;;;;-146.27;100.00;83175.72;5028237;28;20519;-73
2023/05/06 05:47:58;;;;;;;24.95;17.58;;;;;;;-146.27;100.00;83147.59;5030433;28;20029;-73
2023/05/06 05:50:25;;;;;;;31.20;19.00;;;;;;;-146.27;100.00;83147.59;5029332;28;20501;-74
2023/05/06 05:52:50;;;;;;;26.25;17.85;;;;;;;-146.27;100.00;83111.44;5028624;28;20155;-74
2023/05/06 05:55:15;;;;;;;30.48;18.88;;;;;;;-146.27;100.00;83143.59;5026490;28;20501;-73
2023/05/06 05:57:40;;;;;;;30.33;19.17;;;;;;;-146.27;100.00;83083.31;5028708;28;20083;-72
2023/05/06 06:00:06;;;;;;;30.02;19.80;;;;;;;-146.27;100.00;83063.22;5029318;28;20124;-75
2023/05/06 06:02:33;;;;;;;34.85;21.00;;;;;;;-146.27;100.00;83075.28;5027433;28;20136;-73
2023/05/06 06:04:58;;;;;;;33.70;20.73;;;;;;;-146.27;100.00;83055.19;5028312;28;20029;-73
2023/05/06 06:07:24;;;;;;;30.13;20.45;;;;;;;-146.27;100.00;83039.09;5029343;28;20029;-74
2023/05/06 06:09:49;;;;;;;30.48;19.33;;;;;;;-146.27;100.00;83035.09;5028003;28;20116;-74
2023/05/06 06:12:14;;;;;;;31.00;21.35;;;;;;;-146.27;100.00;83002.94;5029544;28;20072;-73
2023/05/06 06:14:40;;;;;;;36.42;20.60;;;;;;;-146.27;100.00;83035.09;5026121;28;20022;-74
2023/05/06 06:17:05;;;;;;;29.90;19.40;;;;;;;-146.27;100.00;82994.91;5028145;28;20067;-73
2023/05/06 06:19:31;;;;;;;35.13;20.77;;;;;;;-146.27;100.00;83002.94;5024764;28;20464;-73
2023/05/06 06:21:56;;;;;;;34.58;22.35;;;;;;;-146.27;100.00;82940.66;5026834;28;20021;-75
2023/05/06 06:24:23;;;;;;;38.05;22.38;;;;;;;-146.27;100.00;82944.69;5028035;28;20018;-73
2023/05/06 06:26:48;;;;;;;39.60;23.50;;;;;;;-146.27;100.00;82966.78;5031728;28;20074;-73
2023/05/06 06:29:14;;;;;;;44.65;25.40;;;;;;;-146.27;100.00;82922.59;5030618;28;20025;-74
2023/05/06 06:31:39;;;;;;;36.60;21.30;;;;;;;-146.27;100.00;82904.50;5032114;28;20472;-69
2023/05/06 06:34:05;;;;;;;40.83;22.55;;;;;;;-146.27;100.00;82898.47;5032023;28;20139;-72
2023/05/06 06:36:31;;;;;;;37.90;23.02;;;;;;;-146.27;100.00;82876.38;5032786;28;20036;-73
2023/05/06 06:38:56;;;;;;;42.92;23.52;;;;;;;-146.27;100.00;82882.41;5031566;28;20029;-73
2023/05/06 06:41:22;;;;;;;33.33;22.80;;;;;;;-146.27;100.00;82866.31;5030687;28;20464;-73
2023/05/06 06:43:47;;;;;;;38.50;22.17;;;;;;;-146.27;100.00;82862.31;5031733;28;20026;-73
2023/05/06 06:46:12;;;;;;;38.55;22.85;;;;;;;-146.27;100.00;82862.31;5031694;28;20083;-74
2023/05/06 06:48:38;;;;;;;42.38;23.30;;;;;;;-146.27;100.00;82858.28;5030330;28;20503;-73
2023/05/06 06:51:03;;;;;;;38.40;22.70;;;;;;;-146.27;100.00;82842.22;5031224;28;20393;-74
2023/05/06 06:53:29;;;;;;;44.42;23.33;;;;;;;-146.27;100.00;82789.97;5031891;28;20033;-73
2023/05/06 06:55:54;;;;;;;36.95;23.90;;;;;;;-146.27;100.00;82798.03;5030986;28;20083;-73
2023/05/06 06:58:19;;;;;;;37.05;21.75;;;;;;;-146.27;100.00;82761.84;5032236;28;20065;-75
2023/05/06 07:00:45;;;;;;;41.13;23.33;;;;;;;-146.27;100.00;82719.66;5040595;28;20033;-71
2023/05/06 07:03:14;;;;;;;35.20;22.02;;;;;;;-146.27;100.00;82761.84;5041248;28;20032;-74
2023/05/06 07:05:39;;;;;;;33.60;21.48;;;;;;;-146.27;100.00;82763.88;5036458;28;20495;-75
2023/05/06 07:08:04;;;;;;;39.35;20.23;;;;;;;-146.27;100.00;82765.88;5030103;28;20018;-73
2023/05/06 07:10:30;;;;;;;36.42;20.90;;;;;;;-146.27;100.00;82735.75;5031793;28;20043;-74
2023/05/06 07:12:56;;;;;;;37.40;19.45;;;;;;;-146.27;100.00;82739.75;5031194;28;20119;-76
2023/05/06 07:15:22;;;;;;;34.03;19.08;;;;;;;-146.27;100.00;82755.84;5032225;28;20064;-76
2023/05/06 07:17:47;;;;;;;35.38;17.50;;;;;;;-146.27;100.00;82689.53;5032812;28;20067;-74
2023/05/06 07:20:13;;;;;;;28.23;16.63;;;;;;;-146.27;100.00;82717.66;5032640;28;20043;-75
2023/05/06 07:22:39;;;;;;;33.03;16.77;;;;;;;-146.27;100.00;82747.78;5035966;28;20028;-74
2023/05/06 07:25:05;;;;;;;31.33;16.30;;;;;;;-146.27;100.00;82693.56;5042260;28;20029;-75
2023/05/06 07:27:31;;;;;;;29.25;13.82;;;;;;;-146.27;100.00;82699.59;5030148;28;20026;-76
2023/05/06 07:29:56;;;;;;;24.50;13.35;;;;;;;-146.27;100.00;82681.50;5032005;28;20068;-76
2023/05/06 07:32:21;;;;;;;25.67;13.38;;;;;;;-146.27;100.00;82605.16;5030676;28;20075;-77
2023/05/06 07:34:47;;;;;;;24.08;14.18;;;;;;;-146.27;100.00;82627.25;5031284;28;20087;-75
2023/05/06 07:37:12;;;;;;;29.08;12.30;;;;;;;-146.27;100.00;82615.22;5031403;28;20033;-74
2023/05/06 07:39:37;;;;;;;26.27;14.77;;;;;;;-146.27;100.00;82623.25;5031741;28;20037;-76
2023/05/06 07:42:03;;;;;;;22.33;13.40;;;;;;;-146.27;100.00;82597.13;5030502;28;20036;-76
2023/05/06 07:44:28;;;;;;;19.42;11.15;;;;;;;-146.27;100.00;82571.00;5028084;28;20030;-77
2023/05/06 07:46:53;;;;;;;23.13;11.43;;;;;;;-146.27;100.00;82520.78;5027357;28;20040;-77
2023/05/06 07:49:19;;;;;;;26.90;12.63;;;;;;;-146.27;100.00;82530.84;5031484;28;20033;-77
2023/05/06 07:51:44;;;;;;;25.75;10.60;;;;;;;-146.27;100.00;82434.41;5030933;28;20100;-74
2023/05/06 07:54:10;;;;;;;18.83;10.00;;;;;;;-146.27;100.00;82450.47;5030411;28;20025;-75
2023/05/06 07:56:35;;;;;;;20.08;10.82;;;;;;;-146.27;100.00;82420.34;5033657;28;20027;-75
2023/05/06 07:59:00;;;;;;;22.20;11.57;;;;;;;-146.27;100.00;82378.16;5030467;28;20029;-74
2023/05/06 08:01:27;;;;;;;20.35;12.23;;;;;;;-146.27;100.00;82331.97;5029901;28;20036;-75
2023/05/06 08:03:53;;;;;;;20.10;10.18;;;;;;;-146.27;100.00;82374.13;5038467;28;20026;-73
2023/05/06 08:06:19;;;;;;;19.17;9.35;;;;;;;-146.27;100.00;82299.81;5030611;28;20375;-73
2023/05/06 08:08:45;;;;;;;21.98;9.70;;;;;;;-146.27;98.40;82335.97;5031616;28;20047;-74
2023/05/06 08:11:11;;;;;;;19.08;9.88;;;;;;;-146.27;97.14;82303.84;5033830;28;20028;-74
2023/05/06 08:13:36;;;;;;;22.80;10.75;;;;;;;-146.27;96.33;82319.91;5028314;28;20046;-74
2023/05/06 08:16:01;;;;;;;20.75;9.95;;;;;;;-146.27;92.70;82275.72;5030725;28;20408;-73
2023/05/06 08:18:27;;;;;;;19.33;9.32;;;;;;;-146.27;93.09;82251.59;5021915;28;20041;-74
2023/05/06 08:20:52;;;;;;;17.00;8.90;;;;;;;-146.27;94.26;82167.25;5029963;28;20029;-73
2023/05/06 08:23:19;;;;;;;22.15;8.82;;;;;;;-146.27;93.50;82131.09;5038729;28;20459;-75
2023/05/06 08:25:45;;;;;;;21.75;8.35;;;;;;;-146.27;91.77;82175.28;5032096;28;20029;-75
2023/05/06 08:28:10;;;;;;;19.23;8.45;;;;;;;-146.27;88.97;82187.31;5029591;28;20025;-74
2023/05/06 08:30:36;;;;;;;18.33;6.90;;;;;;;-146.27;88.85;82159.22;5030669;28;20032;-75
2023/05/06 08:33:01;;;;;;;14.18;6.05;;;;;;;-146.27;86.80;82145.16;5029265;28;20508;-74
2023/05/06 08:35:27;;;;;;;17.42;9.50;;;;;;;-146.27;87.26;82173.28;5029412;28;20033;-73
2023/05/06 08:37:52;;;;;;;18.10;8.23;;;;;;;-146.27;88.80;82171.25;5027093;28;20048;-74
2023/05/06 08:40:19;;;;;;;20.05;9.88;;;;;;;-146.27;90.61;82151.16;5029443;28;20032;-75
2023/05/06 08:42:46;;;;;;;12.95;5.60;;;;;;;-146.27;87.62;82147.16;5031931;28;20053;-75
2023/05/06 08:45:13;;;;;;;15.88;6.82;;;;;;;-146.27;86.52;82131.09;5029985;28;20045;-75
2023/05/06 08:47:39;;;;;;;20.38;8.63;;;;;;;-146.27;86.36;82173.28;5032723;28;20021;-75
2023/05/06 08:50:05;;;;;;;22.40;11.32;;;;;;;-146.27;88.24;82153.19;5026358;28;20029;-75
2023/05/06 08:52:32;;;;;;;21.10;11.55;;;;;;;-146.27;89.88;82155.19;5028106;28;20064;-75
2023/05/06 08:55:00;;;;;;;17.95;8.07;;;;;;;-146.27;90.68;82149.16;5029615;28;20036;-74
2023/05/06 08:57:29;;;;;;;19.48;7.43;;;;;;;-146.27;91.23;82123.06;5030369;28;20022;-73
2023/05/06 08:59:55;;;;;;;21.92;9.13;;;;;;;-146.27;86.97;82086.91;5029022;28;20048;-75
2023/05/06 09:02:21;;;;;;;20.65;8.45;;;;;;;-146.27;84.44;82022.63;5029700;28;20096;-69
2023/05/06 09:04:48;;;;;;;15.68;6.80;;;;;;;-146.27;83.04;81962.34;5038864;28;20389;-73
2023/05/06 09:07:13;;;;;;;16.33;6.05;;;;;;;-146.27;80.70;81946.28;5029357;28;20032;-71
2023/05/06 09:09:58;;;;;;;24.02;7.38;;;;;;;-146.27;80.97;81992.50;5075885;28;20432;-74
2023/05/06 09:12:24;;;;;;;13.02;5.15;;;;;;;-146.27;80.48;81944.28;5072885;28;20769;-73
2023/05/06 09:14:50;;;;;;;13.25;6.68;;;;;;;-146.27;82.86;81914.16;5060934;28;20032;-73
2023/05/06 09:17:22;;;;;;;12.43;5.15;;;;;;;-146.27;81.77;81900.09;5048299;28;20496;-72
2023/05/06 09:19:52;;;;;;;11.03;4.40;;;;;;;-146.27;78.92;81865.94;5050135;28;20097;-72
2023/05/06 09:22:20;;;;;;;13.15;6.00;;;;;;;-146.27;77.12;81865.94;5063717;28;20777;-72
2023/05/06 09:24:51;;;;;;;14.80;6.43;;;;;;;-146.27;76.91;81827.78;5067149;28;20027;-72
2023/05/06 09:27:18;;;;;;;13.05;5.75;;;;;;;-146.27;78.23;81783.59;5065708;28;20469;-72
2023/05/06 09:29:59;;;;;;;16.65;5.72;;;;;;;-146.27;80.32;81717.31;5062911;28;20021;-73
2023/05/06 09:32:24;;;;;;;15.48;5.53;;;;;;;-146.27;77.53;81765.53;5045994;28;20040;-73
2023/05/06 09:34:50;;;;;;;11.45;5.43;;;;;;;-146.27;73.55;81755.47;5045934;28;20045;-73
2023/05/06 09:37:15;;;;;;;11.13;5.32;;;;;;;-146.27;74.93;81725.34;5047042;28;20104;-72
2023/05/06 09:39:40;;;;;;;12.90;4.90;;;;;;;-146.27;74.00;81701.25;5046611;28;20108;-73
2023/05/06 09:42:07;;;;;;;11.50;5.80;;;;;;;-146.27;73.26;81665.09;5046973;28;20060;-73
2023/05/06 09:44:32;;;;;;;13.02;5.40;;;;;;;-146.27;74.22;81608.88;5046986;28;20029;-72
2023/05/06 09:46:58;;;;;;;17.92;6.35;;;;;;;-146.27;74.22;81620.91;5048298;28;20033;-72
2023/05/06 09:49:23;;;;;;;13.13;5.95;;;;;;;-146.27;78.06;81588.78;5046857;28;20043;-73
2023/05/06 09:51:50;;;;;;;9.77;6.00;;;;;;;-146.27;73.51;81592.78;5046718;28;20476;-72
2023/05/06 09:54:16;;;;;;;16.25;6.15;;;;;;;-146.27;72.27;81572.72;5047375;28;20041;-72
2023/05/06 09:56:43;;;;;;;14.75;6.28;;;;;;;-146.27;71.99;81564.69;5046617;28;20165;-72
2023/05/06 09:59:09;;;;;;;14.90;6.28;;;;;;;-146.27;72.76;81548.59;5046794;28;20014;-72
2023/05/06 10:01:36;;;;;;;14.50;6.28;;;;;;;-146.27;71.16;81514.47;5047603;28;20652;-72
2023/05/06 10:04:06;;;;;;;13.48;5.93;;;;;;;-146.27;69.44;81512.47;5046616;28;20528;-73
2023/05/06 10:06:35;;;;;;;11.52;4.30;;;;;;;-146.27;69.31;81490.38;5047463;28;20055;-73
2023/05/06 10:09:01;;;;;;;13.85;5.45;;;;;;;-146.27;68.15;81472.28;5047132;28;20103;-72
2023/05/06 10:11:30;;;;;;;15.35;6.53;;;;;;;-146.27;69.27;81474.31;5078482;28;20025;-72
2023/05/06 10:13:55;;;;;;;14.27;5.57;;;;;;;-146.27;68.24;81402.00;5048359;28;20143;-73
2023/05/06 10:16:21;;;;;;;17.17;6.70;;;;;;;-146.27;66.76;81476.31;5046268;28;20029;-73
2023/05/06 10:18:48;;;;;;;15.10;6.72;;;;;;;-146.27;69.13;81478.31;5046081;28;20489;-73
2023/05/06 10:21:18;;;;;;;15.63;7.18;;;;;;;-146.27;71.21;81472.28;5033490;28;20100;-72
2023/05/06 10:23:51;;;;;;;14.68;6.25;;;;;;;-146.27;70.34;81446.19;5042167;28;20507;-72
2023/05/06 10:26:18;;;;;;;13.77;7.23;;;;;;;-146.27;70.57;81460.25;5045069;28;20053;-72
2023/05/06 10:28:48;;;;;;;15.32;7.47;;;;;;;-146.27;74.71;81442.16;5031555;28;20048;-73
2023/05/06 10:31:14;;;;;;;13.63;6.90;;;;;;;-146.27;69.40;81478.31;5032806;28;20080;-73
2023/05/06 10:33:43;;;;;;;15.07;7.38;;;;;;;-146.27;70.13;81359.81;5032256;28;20079;-72
2023/05/06 10:36:26;;;;;;;15.95;7.57;;;;;;;-146.27;69.79;81313.63;5032684;28;20425;-73
2023/05/06 10:38:57;;;;;;;13.68;7.65;;;;;;;-146.27;70.41;81287.53;5049672;28;20029;-73
2023/05/06 10:41:26;;;;;;;14.38;7.82;;;;;;;-146.27;68.27;81285.53;5049852;28;20021;-73
2023/05/06 10:43:55;;;;;;;15.55;7.45;;;;;;;-146.27;68.86;81289.53;5051171;28;20040;-73
2023/05/06 10:46:25;;;;;;;19.40;7.28;;;;;;;-146.27;71.74;81295.56;5051430;28;20100;-73
2023/05/06 10:49:03;;;;;;;15.82;7.45;;;;;;;-146.27;69.43;81247.38;5032428;28;20041;-73
2023/05/06 10:51:30;;;;;;;12.65;6.03;;;;;;;-146.27;67.08;81263.44;5031405;28;20075;-72
2023/05/06 10:54:04;;;;;;;12.48;7.60;;;;;;;-146.27;68.36;81275.47;5032617;28;20076;-72